sensor_id;sensor_type;location;lat;lon;timestamp;temperature;humidity
40816;DHT22;26535;48.788;9.214;2022-10-16T05:03:34;15.00;99.90
40816;DHT22;26535;48.788;9.214;2022-10-16T05:06:01;15.00;99.90
40816;DHT22;26535;48.788;9.214;2022-10-16T05:08:26;15.00;99.90
40816;DHT22;26535;48.788;9.214;2022-10-16T05:10:52;15.00;99.90
40816;DHT22;26535;48.788;9.214;2022-10-16T05:13:18;15.00;99.90
40816;DHT22;26535;48.788;9.214;2022-10-16T05:15:47;15.00;99.90
40816;DHT22;26535;48.788;9.214;2022-10-16T05:18:13;14.90;99.90
40816;DHT22;26535;48.788;9.214;2022-10-16T05:20:39;14.90;99.90
40816;DHT22;26535;48.788;9.214;2022-10-16T05:23:05;14.90;99.90
40816;DHT22;26535;48.788;9.214;2022-10-16T05:25:31;14.90;99.90
40816;DHT22;26535;48.788;9.214;2022-10-16T05:27:56;14.80;99.90
40816;DHT22;26535;48.788;9.214;2022-10-16T05:30:22;14.80;99.90
40816;DHT22;26535;48.788;9.214;2022-10-16T05:32:48;14.80;99.90
40816;DHT22;26535;48.788;9.214;2022-10-16T05:35:15;14.80;99.90
40816;DHT22;26535;48.788;9.214;2022-10-16T05:37:41;14.80;99.90
40816;DHT22;26535;48.788;9.214;2022-10-16T05:40:08;14.70;99.90
40816;DHT22;26535;48.788;9.214;2022-10-16T05:42:35;14.70;99.90
40816;DHT22;26535;48.788;9.214;2022-10-16T05:45:00;14.60;99.90
40816;DHT22;26535;48.788;9.214;2022-10-16T05:47:26;14.60;99.90
40816;DHT22;26535;48.788;9.214;2022-10-16T05:49:52;14.60;99.90
40816;DHT22;26535;48.788;9.214;2022-10-16T05:52:18;14.60;99.90
40816;DHT22;26535;48.788;9.214;2022-10-16T05:54:50;14.70;99.90
40816;DHT22;26535;48.788;9.214;2022-10-16T05:57:16;14.70;99.90
40816;DHT22;26535;48.788;9.214;2022-10-16T05:59:42;14.80;99.90
40816;DHT22;26535;48.788;9.214;2022-10-16T06:02:12;14.80;99.90
40816;DHT22;26535;48.788;9.214;2022-10-16T06:04:38;14.90;99.90
40816;DHT22;26535;48.788;9.214;2022-10-16T06:07:04;14.90;99.90
40816;DHT22;26535;48.788;9.214;2022-10-16T06:09:35;14.90;99.90
40816;DHT22;26535;48.788;9.214;2022-10-16T06:12:01;15.00;99.90
40816;DHT22;26535;48.788;9.214;2022-10-16T06:14:27;15.00;99.90
40816;DHT22;26535;48.788;9.214;2022-10-16T06:16:53;15.00;99.90
40816;DHT22;26535;48.788;9.214;2022-10-16T06:19:18;15.10;99.90
40816;DHT22;26535;48.788;9.214;2022-10-16T06:21:44;15.10;99.90
40816;DHT22;26535;48.788;9.214;2022-10-16T06:24:10;15.10;99.90
40816;DHT22;26535;48.788;9.214;2022-10-16T06:26:36;15.20;99.90
40816;DHT22;26535;48.788;9.214;2022-10-16T06:29:02;15.20;99.90
40816;DHT22;26535;48.788;9.214;2022-10-16T06:31:29;15.30;99.90
40816;DHT22;26535;48.788;9.214;2022-10-16T06:33:57;15.30;99.90
40816;DHT22;26535;48.788;9.214;2022-10-16T06:36:24;15.30;99.90
40816;DHT22;26535;48.788;9.214;2022-10-16T06:38:50;15.30;99.90
40816;DHT22;26535;48.788;9.214;2022-10-16T06:41:19;15.30;99.90
40816;DHT22;26535;48.788;9.214;2022-10-16T06:43:45;15.40;99.90
40816;DHT22;26535;48.788;9.214;2022-10-16T06:46:13;15.50;99.90
40816;DHT22;26535;48.788;9.214;2022-10-16T06:48:38;15.50;99.90
40816;DHT22;26535;48.788;9.214;2022-10-16T06:51:06;15.60;99.90
40816;DHT22;26535;48.788;9.214;2022-10-16T06:53:35;15.70;99.90
40816;DHT22;26535;48.788;9.214;2022-10-16T06:56:33;15.80;99.90
40816;DHT22;26535;48.788;9.214;2022-10-16T06:58:59;15.80;99.90
40816;DHT22;26535;48.788;9.214;2022-10-16T07:01:25;15.80;99.90
40816;DHT22;26535;48.788;9.214;2022-10-16T07:03:51;15.80;99.90
40816;DHT22;26535;48.788;9.214;2022-10-16T07:06:19;15.90;99.90
40816;DHT22;26535;48.788;9.214;2022-10-16T07:08:46;16.00;99.90
40816;DHT22;26535;48.788;9.214;2022-10-16T07:11:14;16.10;99.90
40816;DHT22;26535;48.788;9.214;2022-10-16T07:13:42;16.20;99.90
40816;DHT22;26535;48.788;9.214;2022-10-16T07:16:15;16.30;99.90
40816;DHT22;26535;48.788;9.214;2022-10-16T07:18:43;16.50;99.90
40816;DHT22;26535;48.788;9.214;2022-10-16T07:21:19;16.60;99.90
40816;DHT22;26535;48.788;9.214;2022-10-16T07:23:52;16.60;99.90
40816;DHT22;26535;48.788;9.214;2022-10-16T07:26:22;16.70;99.90
40816;DHT22;26535;48.788;9.214;2022-10-16T07:28:48;16.70;99.90
40816;DHT22;26535;48.788;9.214;2022-10-16T07:31:15;16.70;99.90
40816;DHT22;26535;48.788;9.214;2022-10-16T07:33:42;16.70;99.90
40816;DHT22;26535;48.788;9.214;2022-10-16T07:36:10;16.70;99.90
40816;DHT22;26535;48.788;9.214;2022-10-16T07:38:35;16.60;99.90
40816;DHT22;26535;48.788;9.214;2022-10-16T07:41:06;16.60;99.90
40816;DHT22;26535;48.788;9.214;2022-10-16T07:43:33;16.60;99.90
40816;DHT22;26535;48.788;9.214;2022-10-16T07:45:59;16.70;99.90
40816;DHT22;26535;48.788;9.214;2022-10-16T07:48:30;16.80;99.90
40816;DHT22;26535;48.788;9.214;2022-10-16T07:51:04;16.90;99.90
40816;DHT22;26535;48.788;9.214;2022-10-16T07:53:31;16.90;99.90
40816;DHT22;26535;48.788;9.214;2022-10-16T07:56:04;17.00;99.90
40816;DHT22;26535;48.788;9.214;2022-10-16T07:58:31;17.10;99.90
40816;DHT22;26535;48.788;9.214;2022-10-16T08:00:57;17.10;99.90
40816;DHT22;26535;48.788;9.214;2022-10-16T08:03:24;17.20;99.90
40816;DHT22;26535;48.788;9.214;2022-10-16T08:05:50;17.30;99.90
40816;DHT22;26535;48.788;9.214;2022-10-16T08:08:18;17.40;99.90
40816;DHT22;26535;48.788;9.214;2022-10-16T08:10:44;17.50;99.90
40816;DHT22;26535;48.788;9.214;2022-10-16T08:13:10;17.60;99.90
40816;DHT22;26535;48.788;9.214;2022-10-16T08:15:36;17.70;99.90
40816;DHT22;26535;48.788;9.214;2022-10-16T08:18:04;17.80;99.90
40816;DHT22;26535;48.788;9.214;2022-10-16T08:20:31;18.00;99.90
40816;DHT22;26535;48.788;9.214;2022-10-16T08:22:57;18.20;99.90
40816;DHT22;26535;48.788;9.214;2022-10-16T08:25:24;18.30;99.90
40816;DHT22;26535;48.788;9.214;2022-10-16T08:27:50;18.50;99.90
40816;DHT22;26535;48.788;9.214;2022-10-16T08:30:17;18.70;99.90
40816;DHT22;26535;48.788;9.214;2022-10-16T08:32:43;19.00;99.90
40816;DHT22;26535;48.788;9.214;2022-10-16T08:35:10;19.10;99.90
40816;DHT22;26535;48.788;9.214;2022-10-16T08:37:36;19.50;99.90
40816;DHT22;26535;48.788;9.214;2022-10-16T08:40:03;19.70;99.90
40816;DHT22;26535;48.788;9.214;2022-10-16T08:42:31;19.80;99.90
40816;DHT22;26535;48.788;9.214;2022-10-16T08:50:29;19.50;99.90
40816;DHT22;26535;48.788;9.214;2022-10-16T08:52:57;19.30;99.90
40816;DHT22;26535;48.788;9.214;2022-10-16T08:55:33;19.40;99.90
40816;DHT22;26535;48.788;9.214;2022-10-16T08:58:16;19.30;99.90
40816;DHT22;26535;48.788;9.214;2022-10-16T09:00:49;19.20;99.90
40816;DHT22;26535;48.788;9.214;2022-10-16T09:03:39;19.10;99.90
40816;DHT22;26535;48.788;9.214;2022-10-16T09:06:17;19.20;99.90
40816;DHT22;26535;48.788;9.214;2022-10-16T09:11:50;19.50;99.90
40816;DHT22;26535;48.788;9.214;2022-10-16T09:14:51;19.60;99.90
40816;DHT22;26535;48.788;9.214;2022-10-16T09:17:54;19.80;99.90
40816;DHT22;26535;48.788;9.214;2022-10-16T09:20:30;20.00;99.90
40816;DHT22;26535;48.788;9.214;2022-10-16T09:23:18;20.20;99.90
40816;DHT22;26535;48.788;9.214;2022-10-16T09:25:47;20.20;99.90
40816;DHT22;26535;48.788;9.214;2022-10-16T09:28:13;20.40;99.90
40816;DHT22;26535;48.788;9.214;2022-10-16T09:30:40;20.40;99.90
40816;DHT22;26535;48.788;9.214;2022-10-16T09:33:07;20.50;99.90
40816;DHT22;26535;48.788;9.214;2022-10-16T09:35:45;20.40;99.90
40816;DHT22;26535;48.788;9.214;2022-10-16T09:38:41;20.40;99.90
40816;DHT22;26535;48.788;9.214;2022-10-16T09:41:21;20.40;99.90
40816;DHT22;26535;48.788;9.214;2022-10-16T09:43:51;20.60;99.90
40816;DHT22;26535;48.788;9.214;2022-10-16T09:46:32;20.70;99.90
40816;DHT22;26535;48.788;9.214;2022-10-16T09:49:21;20.80;99.90
40816;DHT22;26535;48.788;9.214;2022-10-16T09:51:48;20.80;99.90
40816;DHT22;26535;48.788;9.214;2022-10-16T09:54:19;21.00;99.90
40816;DHT22;26535;48.788;9.214;2022-10-16T09:56:45;21.10;99.90
40816;DHT22;26535;48.788;9.214;2022-10-16T09:59:19;21.40;99.90
40816;DHT22;26535;48.788;9.214;2022-10-16T10:01:50;21.60;99.90
40816;DHT22;26535;48.788;9.214;2022-10-16T10:04:21;21.70;99.90
40816;DHT22;26535;48.788;9.214;2022-10-16T10:07:02;21.90;99.90
40816;DHT22;26535;48.788;9.214;2022-10-16T10:09:38;22.10;99.90
40816;DHT22;26535;48.788;9.214;2022-10-16T10:12:05;22.30;99.90
40816;DHT22;26535;48.788;9.214;2022-10-16T10:14:37;22.40;99.90
40816;DHT22;26535;48.788;9.214;2022-10-16T10:20:00;22.60;99.90
40816;DHT22;26535;48.788;9.214;2022-10-16T10:22:45;22.60;99.90
40816;DHT22;26535;48.788;9.214;2022-10-16T10:36:39;23.30;99.90
40816;DHT22;26535;48.788;9.214;2022-10-16T10:46:57;24.30;99.90
40816;DHT22;26535;48.788;9.214;2022-10-16T11:00:23;25.20;98.40
40816;DHT22;26535;48.788;9.214;2022-10-16T11:12:17;27.40;95.70
40816;DHT22;26535;48.788;9.214;2022-10-16T11:15:27;28.00;93.80
40816;DHT22;26535;48.788;9.214;2022-10-16T11:21:10;28.90;91.50
40816;DHT22;26535;48.788;9.214;2022-10-16T11:23:57;29.20;91.10
40816;DHT22;26535;48.788;9.214;2022-10-16T11:26:30;29.10;90.20
40816;DHT22;26535;48.788;9.214;2022-10-16T11:28:57;29.50;89.40
40816;DHT22;26535;48.788;9.214;2022-10-16T11:32:22;30.20;87.30
40816;DHT22;26535;48.788;9.214;2022-10-16T11:34:36;30.30;87.30
40816;DHT22;26535;48.788;9.214;2022-10-16T11:37:10;30.20;83.40
40816;DHT22;26535;48.788;9.214;2022-10-16T11:39:38;30.10;82.90
40816;DHT22;26535;48.788;9.214;2022-10-16T11:42:19;30.50;82.30
40816;DHT22;26535;48.788;9.214;2022-10-16T11:45:03;31.60;80.30
40816;DHT22;26535;48.788;9.214;2022-10-16T11:47:34;32.40;77.30
40816;DHT22;26535;48.788;9.214;2022-10-16T11:50:08;32.60;77.40
40816;DHT22;26535;48.788;9.214;2022-10-16T11:52:57;33.70;75.30
40816;DHT22;26535;48.788;9.214;2022-10-16T11:55:36;35.10;71.80
40816;DHT22;26535;48.788;9.214;2022-10-16T12:00:40;36.30;66.60
40816;DHT22;26535;48.788;9.214;2022-10-16T12:06:22;37.20;63.00
40816;DHT22;26535;48.788;9.214;2022-10-16T12:08:53;37.50;61.80
40816;DHT22;26535;48.788;9.214;2022-10-16T12:11:24;37.80;61.30
40816;DHT22;26535;48.788;9.214;2022-10-16T12:16:57;36.90;60.20
40816;DHT22;26535;48.788;9.214;2022-10-16T12:19:25;36.20;60.20
40816;DHT22;26535;48.788;9.214;2022-10-16T12:21:55;35.90;59.30
40816;DHT22;26535;48.788;9.214;2022-10-16T12:24:37;35.40;62.80
40816;DHT22;26535;48.788;9.214;2022-10-16T12:27:05;35.60;61.60
40816;DHT22;26535;48.788;9.214;2022-10-16T12:29:41;35.80;59.70
40816;DHT22;26535;48.788;9.214;2022-10-16T12:32:39;35.70;59.80
40816;DHT22;26535;48.788;9.214;2022-10-16T12:35:17;36.50;58.50
40816;DHT22;26535;48.788;9.214;2022-10-16T12:37:44;35.70;58.90
40816;DHT22;26535;48.788;9.214;2022-10-16T12:40:32;35.10;60.50
40816;DHT22;26535;48.788;9.214;2022-10-16T12:42:58;34.90;61.70
40816;DHT22;26535;48.788;9.214;2022-10-16T12:47:53;35.10;60.90
40816;DHT22;26535;48.788;9.214;2022-10-16T12:50:27;35.90;60.60
40816;DHT22;26535;48.788;9.214;2022-10-16T12:52:54;36.70;58.90
40816;DHT22;26535;48.788;9.214;2022-10-16T12:55:21;37.00;59.10
40816;DHT22;26535;48.788;9.214;2022-10-16T13:00:56;36.50;58.20
40816;DHT22;26535;48.788;9.214;2022-10-16T13:09:23;33.30;62.00
40816;DHT22;26535;48.788;9.214;2022-10-16T13:14:51;31.60;66.10
40816;DHT22;26535;48.788;9.214;2022-10-16T13:17:45;31.90;66.90
40816;DHT22;26535;48.788;9.214;2022-10-16T13:20:21;33.00;66.80
40816;DHT22;26535;48.788;9.214;2022-10-16T13:25:40;33.40;66.10
40816;DHT22;26535;48.788;9.214;2022-10-16T13:28:11;32.90;65.60
40816;DHT22;26535;48.788;9.214;2022-10-16T13:33:21;31.80;64.90
40816;DHT22;26535;48.788;9.214;2022-10-16T13:35:54;31.30;70.30
40816;DHT22;26535;48.788;9.214;2022-10-16T13:38:22;30.90;67.60
40816;DHT22;26535;48.788;9.214;2022-10-16T13:40:49;30.60;70.90
40816;DHT22;26535;48.788;9.214;2022-10-16T13:43:18;30.30;69.50
40816;DHT22;26535;48.788;9.214;2022-10-16T13:46:14;30.20;72.40
40816;DHT22;26535;48.788;9.214;2022-10-16T13:48:39;30.20;70.40
40816;DHT22;26535;48.788;9.214;2022-10-16T13:53:36;30.00;74.10
40816;DHT22;26535;48.788;9.214;2022-10-16T13:56:04;30.00;69.40
40816;DHT22;26535;48.788;9.214;2022-10-16T13:58:30;30.10;74.30
40816;DHT22;26535;48.788;9.214;2022-10-16T14:00:59;30.30;71.10
40816;DHT22;26535;48.788;9.214;2022-10-16T14:03:26;30.50;68.50
40816;DHT22;26535;48.788;9.214;2022-10-16T14:05:55;30.40;73.50
40816;DHT22;26535;48.788;9.214;2022-10-16T14:08:22;30.40;69.80
40816;DHT22;26535;48.788;9.214;2022-10-16T14:10:54;30.00;70.90
40816;DHT22;26535;48.788;9.214;2022-10-16T14:13:58;29.60;71.50
40816;DHT22;26535;48.788;9.214;2022-10-16T14:16:26;29.30;70.70
40816;DHT22;26535;48.788;9.214;2022-10-16T14:19:01;28.90;72.40
40816;DHT22;26535;48.788;9.214;2022-10-16T14:21:28;28.60;73.80
40816;DHT22;26535;48.788;9.214;2022-10-16T14:23:54;28.50;73.10
40816;DHT22;26535;48.788;9.214;2022-10-16T14:26:23;28.30;72.80
40816;DHT22;26535;48.788;9.214;2022-10-16T14:29:01;28.20;75.20
40816;DHT22;26535;48.788;9.214;2022-10-16T14:31:31;28.10;74.00
40816;DHT22;26535;48.788;9.214;2022-10-16T14:33:57;28.00;73.70
40816;DHT22;26535;48.788;9.214;2022-10-16T14:36:24;28.00;74.50
40816;DHT22;26535;48.788;9.214;2022-10-16T14:39:17;27.80;77.70
40816;DHT22;26535;48.788;9.214;2022-10-16T14:41:47;27.60;75.10
40816;DHT22;26535;48.788;9.214;2022-10-16T14:44:13;27.50;79.10
40816;DHT22;26535;48.788;9.214;2022-10-16T14:46:41;27.40;77.90
40816;DHT22;26535;48.788;9.214;2022-10-16T14:51:41;27.30;81.40
40816;DHT22;26535;48.788;9.214;2022-10-16T14:54:16;27.40;77.20
40816;DHT22;26535;48.788;9.214;2022-10-16T14:56:56;27.70;78.10
40816;DHT22;26535;48.788;9.214;2022-10-16T15:01:51;28.10;79.20
40816;DHT22;26535;48.788;9.214;2022-10-16T15:04:17;28.10;80.60
40816;DHT22;26535;48.788;9.214;2022-10-16T15:06:44;28.10;79.90
40816;DHT22;26535;48.788;9.214;2022-10-16T15:09:10;28.00;76.80
40816;DHT22;26535;48.788;9.214;2022-10-16T15:11:36;28.00;75.60
40816;DHT22;26535;48.788;9.214;2022-10-16T15:14:02;28.10;76.00
40816;DHT22;26535;48.788;9.214;2022-10-16T15:16:30;28.10;76.90
40816;DHT22;26535;48.788;9.214;2022-10-16T15:18:56;28.30;78.50
40816;DHT22;26535;48.788;9.214;2022-10-16T15:21:28;28.50;78.10
40816;DHT22;26535;48.788;9.214;2022-10-16T15:23:54;28.60;78.00
40816;DHT22;26535;48.788;9.214;2022-10-16T15:26:20;28.80;77.40
40816;DHT22;26535;48.788;9.214;2022-10-16T15:28:46;29.30;77.70
40816;DHT22;26535;48.788;9.214;2022-10-16T15:31:12;29.80;74.80
40816;DHT22;26535;48.788;9.214;2022-10-16T15:33:37;30.40;75.20
40816;DHT22;26535;48.788;9.214;2022-10-16T15:36:04;30.70;73.00
40816;DHT22;26535;48.788;9.214;2022-10-16T15:38:30;30.30;73.40
40816;DHT22;26535;48.788;9.214;2022-10-16T15:40:56;30.00;74.60
40816;DHT22;26535;48.788;9.214;2022-10-16T15:43:22;29.50;76.70
40816;DHT22;26535;48.788;9.214;2022-10-16T15:46:05;28.90;75.80
40816;DHT22;26535;48.788;9.214;2022-10-16T15:48:32;28.00;77.80
40816;DHT22;26535;48.788;9.214;2022-10-16T15:50:59;27.40;80.60
40816;DHT22;26535;48.788;9.214;2022-10-16T15:53:25;27.00;84.00
40816;DHT22;26535;48.788;9.214;2022-10-16T15:55:51;26.70;85.30
40816;DHT22;26535;48.788;9.214;2022-10-16T15:58:17;26.50;85.20
40816;DHT22;26535;48.788;9.214;2022-10-16T16:00:54;26.30;86.00
40816;DHT22;26535;48.788;9.214;2022-10-16T16:03:21;26.00;84.20
40816;DHT22;26535;48.788;9.214;2022-10-16T16:05:47;25.70;85.10
40816;DHT22;26535;48.788;9.214;2022-10-16T16:08:12;25.30;88.60
40816;DHT22;26535;48.788;9.214;2022-10-16T16:10:38;25.10;89.30
40816;DHT22;26535;48.788;9.214;2022-10-16T16:13:04;24.80;90.40
40816;DHT22;26535;48.788;9.214;2022-10-16T16:15:30;24.70;91.00
40816;DHT22;26535;48.788;9.214;2022-10-16T16:17:58;24.50;90.90
40816;DHT22;26535;48.788;9.214;2022-10-16T16:20:25;24.20;91.20
40816;DHT22;26535;48.788;9.214;2022-10-16T16:22:51;23.80;91.80
40816;DHT22;26535;48.788;9.214;2022-10-16T16:25:17;23.50;92.20
40816;DHT22;26535;48.788;9.214;2022-10-16T16:27:43;23.20;92.80
40816;DHT22;26535;48.788;9.214;2022-10-16T16:30:10;22.90;93.30
40816;DHT22;26535;48.788;9.214;2022-10-16T16:32:36;22.70;93.80
40816;DHT22;26535;48.788;9.214;2022-10-16T16:35:03;22.40;94.10
40816;DHT22;26535;48.788;9.214;2022-10-16T16:37:32;22.30;96.40
40816;DHT22;26535;48.788;9.214;2022-10-16T16:39:58;22.20;96.30
40816;DHT22;26535;48.788;9.214;2022-10-16T16:42:27;22.20;95.70
40816;DHT22;26535;48.788;9.214;2022-10-16T16:44:53;22.10;95.90
40816;DHT22;26535;48.788;9.214;2022-10-16T16:47:19;21.90;96.50
40816;DHT22;26535;48.788;9.214;2022-10-16T16:49:45;21.90;96.30
40816;DHT22;26535;48.788;9.214;2022-10-16T16:52:12;21.80;96.00
40816;DHT22;26535;48.788;9.214;2022-10-16T16:54:38;21.60;96.30
40816;DHT22;26535;48.788;9.214;2022-10-16T16:57:04;21.50;96.90
40816;DHT22;26535;48.788;9.214;2022-10-16T16:59:30;21.30;97.20
40816;DHT22;26535;48.788;9.214;2022-10-16T17:01:59;21.20;98.30
40816;DHT22;26535;48.788;9.214;2022-10-16T17:04:25;21.10;99.30
40816;DHT22;26535;48.788;9.214;2022-10-16T17:06:53;21.10;99.10
40816;DHT22;26535;48.788;9.214;2022-10-16T17:09:19;21.00;98.50
40816;DHT22;26535;48.788;9.214;2022-10-16T17:11:44;20.90;99.10
40816;DHT22;26535;48.788;9.214;2022-10-16T17:14:11;20.80;99.90
40816;DHT22;26535;48.788;9.214;2022-10-16T17:16:38;20.70;99.90
40816;DHT22;26535;48.788;9.214;2022-10-16T17:19:11;20.60;99.90
40816;DHT22;26535;48.788;9.214;2022-10-16T17:21:48;20.50;99.90
40816;DHT22;26535;48.788;9.214;2022-10-16T17:24:17;20.40;99.90
40816;DHT22;26535;48.788;9.214;2022-10-16T17:26:49;20.30;99.90
40816;DHT22;26535;48.788;9.214;2022-10-16T17:29:16;20.20;99.90
40816;DHT22;26535;48.788;9.214;2022-10-16T17:31:43;20.10;99.90
40816;DHT22;26535;48.788;9.214;2022-10-16T17:34:15;20.00;99.90
40816;DHT22;26535;48.788;9.214;2022-10-16T17:36:50;19.90;99.90
40816;DHT22;26535;48.788;9.214;2022-10-16T17:39:16;19.80;99.90
40816;DHT22;26535;48.788;9.214;2022-10-16T17:41:43;19.80;99.90
40816;DHT22;26535;48.788;9.214;2022-10-16T17:44:10;19.70;99.90
40816;DHT22;26535;48.788;9.214;2022-10-16T17:46:37;19.60;99.90
40816;DHT22;26535;48.788;9.214;2022-10-16T17:49:03;19.60;99.90
40816;DHT22;26535;48.788;9.214;2022-10-16T17:51:31;19.50;99.90
40816;DHT22;26535;48.788;9.214;2022-10-16T17:53:59;19.40;99.90
40816;DHT22;26535;48.788;9.214;2022-10-16T17:56:26;19.30;99.90
40816;DHT22;26535;48.788;9.214;2022-10-16T17:58:54;19.30;99.90
40816;DHT22;26535;48.788;9.214;2022-10-16T18:01:26;19.20;99.90
40816;DHT22;26535;48.788;9.214;2022-10-16T18:04:03;19.10;99.90
40816;DHT22;26535;48.788;9.214;2022-10-16T18:06:32;19.00;99.90
40816;DHT22;26535;48.788;9.214;2022-10-16T18:08:58;18.90;99.90
40816;DHT22;26535;48.788;9.214;2022-10-16T18:11:25;18.80;99.90
40816;DHT22;26535;48.788;9.214;2022-10-16T18:13:53;18.70;99.90
40816;DHT22;26535;48.788;9.214;2022-10-16T18:16:19;18.60;99.90
40816;DHT22;26535;48.788;9.214;2022-10-16T18:18:45;18.50;99.90
40816;DHT22;26535;48.788;9.214;2022-10-16T18:21:14;18.50;99.90
40816;DHT22;26535;48.788;9.214;2022-10-16T18:23:40;18.40;99.90
40816;DHT22;26535;48.788;9.214;2022-10-16T18:26:07;18.40;99.90
40816;DHT22;26535;48.788;9.214;2022-10-16T18:28:34;18.40;99.90
40816;DHT22;26535;48.788;9.214;2022-10-16T18:31:02;18.30;99.90
40816;DHT22;26535;48.788;9.214;2022-10-16T18:33:29;18.30;99.90
40816;DHT22;26535;48.788;9.214;2022-10-16T18:35:59;18.20;99.90
40816;DHT22;26535;48.788;9.214;2022-10-16T18:38:25;18.10;99.90
40816;DHT22;26535;48.788;9.214;2022-10-16T18:40:51;18.20;99.90
40816;DHT22;26535;48.788;9.214;2022-10-16T18:43:16;18.10;99.90
40816;DHT22;26535;48.788;9.214;2022-10-16T18:45:43;18.00;99.90
40816;DHT22;26535;48.788;9.214;2022-10-16T18:48:09;18.00;99.90
40816;DHT22;26535;48.788;9.214;2022-10-16T18:50:35;17.90;99.90
40816;DHT22;26535;48.788;9.214;2022-10-16T18:53:01;17.80;99.90
40816;DHT22;26535;48.788;9.214;2022-10-16T18:55:26;17.70;99.90
40816;DHT22;26535;48.788;9.214;2022-10-16T18:57:57;17.60;99.90
40816;DHT22;26535;48.788;9.214;2022-10-16T19:00:26;17.50;99.90
40816;DHT22;26535;48.788;9.214;2022-10-16T19:02:53;17.40;99.90
40816;DHT22;26535;48.788;9.214;2022-10-16T19:05:21;17.40;99.90
40816;DHT22;26535;48.788;9.214;2022-10-16T19:07:51;17.30;99.90
40816;DHT22;26535;48.788;9.214;2022-10-16T19:10:17;17.30;99.90
40816;DHT22;26535;48.788;9.214;2022-10-16T19:12:44;17.20;99.90
40816;DHT22;26535;48.788;9.214;2022-10-16T19:15:09;17.20;99.90
40816;DHT22;26535;48.788;9.214;2022-10-16T19:17:35;17.10;99.90
40816;DHT22;26535;48.788;9.214;2022-10-16T19:20:04;17.10;99.90
40816;DHT22;26535;48.788;9.214;2022-10-16T19:22:30;17.10;99.90
40816;DHT22;26535;48.788;9.214;2022-10-16T19:25:16;17.10;99.90
40816;DHT22;26535;48.788;9.214;2022-10-16T19:27:42;17.10;99.90
40816;DHT22;26535;48.788;9.214;2022-10-16T19:30:08;17.00;99.90
40816;DHT22;26535;48.788;9.214;2022-10-16T19:32:34;16.90;99.90
40816;DHT22;26535;48.788;9.214;2022-10-16T19:35:00;16.90;99.90
40816;DHT22;26535;48.788;9.214;2022-10-16T19:37:25;16.80;99.90
40816;DHT22;26535;48.788;9.214;2022-10-16T19:39:52;16.70;99.90
40816;DHT22;26535;48.788;9.214;2022-10-16T19:42:18;16.70;99.90
40816;DHT22;26535;48.788;9.214;2022-10-16T19:44:43;16.60;99.90
40816;DHT22;26535;48.788;9.214;2022-10-16T19:47:09;16.60;99.90
40816;DHT22;26535;48.788;9.214;2022-10-16T19:49:37;16.60;99.90
40816;DHT22;26535;48.788;9.214;2022-10-16T19:52:03;16.60;99.90
40816;DHT22;26535;48.788;9.214;2022-10-16T19:54:31;16.50;99.90
40816;DHT22;26535;48.788;9.214;2022-10-16T19:56:57;16.50;99.90
40816;DHT22;26535;48.788;9.214;2022-10-16T19:59:25;16.40;99.90
40816;DHT22;26535;48.788;9.214;2022-10-16T20:01:54;16.40;99.90
40816;DHT22;26535;48.788;9.214;2022-10-16T20:04:19;16.40;99.90
40816;DHT22;26535;48.788;9.214;2022-10-16T20:06:46;16.30;99.90
40816;DHT22;26535;48.788;9.214;2022-10-16T20:09:12;16.20;99.90
40816;DHT22;26535;48.788;9.214;2022-10-16T20:11:43;16.20;99.90
40816;DHT22;26535;48.788;9.214;2022-10-16T20:14:09;16.30;99.90
40816;DHT22;26535;48.788;9.214;2022-10-16T20:16:35;16.30;99.90
40816;DHT22;26535;48.788;9.214;2022-10-16T20:19:03;16.20;99.90
40816;DHT22;26535;48.788;9.214;2022-10-16T20:21:31;16.10;99.90
40816;DHT22;26535;48.788;9.214;2022-10-16T20:23:59;16.10;99.90
40816;DHT22;26535;48.788;9.214;2022-10-16T20:26:25;16.10;99.90
40816;DHT22;26535;48.788;9.214;2022-10-16T20:28:52;16.00;99.90
40816;DHT22;26535;48.788;9.214;2022-10-16T20:31:21;15.90;99.90
40816;DHT22;26535;48.788;9.214;2022-10-16T20:33:50;15.90;99.90
40816;DHT22;26535;48.788;9.214;2022-10-16T20:36:16;15.80;99.90
40816;DHT22;26535;48.788;9.214;2022-10-16T20:38:43;15.80;99.90
40816;DHT22;26535;48.788;9.214;2022-10-16T20:41:09;15.80;99.90
40816;DHT22;26535;48.788;9.214;2022-10-16T20:43:39;15.80;99.90
40816;DHT22;26535;48.788;9.214;2022-10-16T20:46:08;15.70;99.90
40816;DHT22;26535;48.788;9.214;2022-10-16T20:48:34;15.70;99.90
40816;DHT22;26535;48.788;9.214;2022-10-16T20:51:13;15.70;99.90
40816;DHT22;26535;48.788;9.214;2022-10-16T20:53:39;15.60;99.90
40816;DHT22;26535;48.788;9.214;2022-10-16T20:56:05;15.50;99.90
40816;DHT22;26535;48.788;9.214;2022-10-16T20:58:31;15.40;99.90
40816;DHT22;26535;48.788;9.214;2022-10-16T21:01:04;15.40;99.90
40816;DHT22;26535;48.788;9.214;2022-10-16T21:03:30;15.40;99.90
40816;DHT22;26535;48.788;9.214;2022-10-16T21:05:55;15.40;99.90
40816;DHT22;26535;48.788;9.214;2022-10-16T21:08:21;15.30;99.90
40816;DHT22;26535;48.788;9.214;2022-10-16T21:10:47;15.30;99.90
40816;DHT22;26535;48.788;9.214;2022-10-16T21:13:12;15.30;99.90
40816;DHT22;26535;48.788;9.214;2022-10-16T21:15:38;15.30;99.90
40816;DHT22;26535;48.788;9.214;2022-10-16T21:18:04;15.30;99.90
40816;DHT22;26535;48.788;9.214;2022-10-16T21:20:29;15.20;99.90
40816;DHT22;26535;48.788;9.214;2022-10-16T21:22:55;15.20;99.90
40816;DHT22;26535;48.788;9.214;2022-10-16T21:25:21;15.10;99.90
40816;DHT22;26535;48.788;9.214;2022-10-16T21:27:46;15.10;99.90
40816;DHT22;26535;48.788;9.214;2022-10-16T21:30:12;15.00;99.90
40816;DHT22;26535;48.788;9.214;2022-10-16T21:32:38;15.00;99.90
40816;DHT22;26535;48.788;9.214;2022-10-16T21:35:05;14.90;99.90
40816;DHT22;26535;48.788;9.214;2022-10-16T21:37:31;14.90;99.90
40816;DHT22;26535;48.788;9.214;2022-10-16T21:39:57;14.80;99.90
40816;DHT22;26535;48.788;9.214;2022-10-16T21:42:23;14.80;99.90
40816;DHT22;26535;48.788;9.214;2022-10-16T21:44:49;14.70;99.90
40816;DHT22;26535;48.788;9.214;2022-10-16T21:47:14;14.70;99.90
40816;DHT22;26535;48.788;9.214;2022-10-16T21:49:40;14.70;99.90
40816;DHT22;26535;48.788;9.214;2022-10-16T21:52:06;14.60;99.90
40816;DHT22;26535;48.788;9.214;2022-10-16T21:54:31;14.60;99.90
40816;DHT22;26535;48.788;9.214;2022-10-16T21:56:57;14.60;99.90
40816;DHT22;26535;48.788;9.214;2022-10-16T21:59:23;14.60;99.90
40816;DHT22;26535;48.788;9.214;2022-10-16T22:01:52;14.60;99.90
40816;DHT22;26535;48.788;9.214;2022-10-16T22:04:17;14.50;99.90
40816;DHT22;26535;48.788;9.214;2022-10-16T22:06:44;14.50;99.90
40816;DHT22;26535;48.788;9.214;2022-10-16T22:09:10;14.40;99.90
40816;DHT22;26535;48.788;9.214;2022-10-16T22:11:41;14.40;99.90
40816;DHT22;26535;48.788;9.214;2022-10-16T22:14:10;14.40;99.90
40816;DHT22;26535;48.788;9.214;2022-10-16T22:16:36;14.30;99.90